Time;durP1;ratioP1;P1;durP2;ratioP2;P2;SDS_P1;SDS_P2;PMS_P1;PMS_P2;Temp;Humidity;BMP_temperature;BMP_pressure;BME280_temperature;BME280_humidity;BME280_pressure;Samples;Min_cycle;Max_cycle;Signal;HPM_P1;HPM_P2
2023/09/21 00:02:13;;;;;;;0.10;0.10;;;;;;;14.79;100.00;95530.66;4964263;28;20038;-85
2023/09/21 00:04:59;;;;;;;0.10;0.10;;;;;;;14.76;100.00;95533.94;4991722;28;20049;-86
2023/09/21 00:07:45;;;;;;;0.10;0.10;;;;;;;14.68;100.00;95531.91;4976120;28;20272;-86
2023/09/21 00:10:32;;;;;;;0.10;0.10;;;;;;;14.61;100.00;95516.16;4993067;28;20499;-85
2023/09/21 00:13:20;;;;;;;0.10;0.10;;;;;;;14.49;100.00;95530.09;4991066;28;20092;-85
2023/09/21 00:16:18;;;;;;;0.10;0.10;;;;;;;14.39;100.00;95521.34;4991687;28;20048;-86
2023/09/21 00:19:07;;;;;;;0.10;0.10;;;;;;;14.37;100.00;95520.84;4990649;28;20117;-85
2023/09/21 00:21:57;;;;;;;0.10;0.10;;;;;;;14.34;100.00;95518.75;4992062;28;20042;-85
2023/09/21 00:24:43;;;;;;;0.10;0.10;;;;;;;14.26;100.00;95514.84;4991940;28;20058;-85
2023/09/21 00:27:29;;;;;;;0.10;0.10;;;;;;;14.22;100.00;95514.63;4992059;28;20668;-86
2023/09/21 00:30:14;;;;;;;0.10;0.10;;;;;;;14.25;100.00;95512.47;4992027;28;20052;-84
2023/09/21 00:33:02;;;;;;;0.10;0.10;;;;;;;14.28;100.00;95512.66;4992153;28;20057;-85
2023/09/21 00:35:48;;;;;;;0.10;0.10;;;;;;;14.28;100.00;95509.97;4971318;28;20053;-86
2023/09/21 00:38:34;;;;;;;0.10;0.10;;;;;;;14.30;100.00;95517.75;4991397;28;20046;-85
2023/09/21 00:41:19;;;;;;;0.10;0.10;;;;;;;14.35;100.00;95514.97;4990973;28;20046;-84
2023/09/21 00:44:08;;;;;;;0.10;0.10;;;;;;;14.35;100.00;95506.91;4973945;28;20037;-85
2023/09/21 00:46:54;;;;;;;0.10;0.10;;;;;;;14.35;100.00;95513.06;4989836;28;20053;-84
2023/09/21 00:49:41;;;;;;;0.00;0.00;;;;;;;14.34;100.00;95506.09;4993611;28;20041;-85
2023/09/21 00:52:30;;;;;;;0.08;0.08;;;;;;;14.35;100.00;95506.91;4988188;28;20042;-84
2023/09/21 00:55:25;;;;;;;0.10;0.10;;;;;;;14.37;100.00;95505.50;4989118;28;20412;-86
2023/09/21 00:58:12;;;;;;;0.03;0.03;;;;;;;14.34;100.00;95502.63;4989629;28;20041;-85
2023/09/21 01:00:59;;;;;;;0.10;0.10;;;;;;;14.19;100.00;95504.47;4978196;28;20053;-84
2023/09/21 01:03:45;;;;;;;0.03;0.03;;;;;;;14.07;100.00;95495.25;4979292;28;20046;-84
2023/09/21 01:06:31;;;;;;;0.00;0.00;;;;;;;13.91;100.00;95492.00;4995890;28;20860;-84
2023/09/21 01:09:17;;;;;;;0.10;0.10;;;;;;;13.82;100.00;95497.22;4991983;28;20382;-84
2023/09/21 01:12:05;;;;;;;0.10;0.10;;;;;;;13.77;100.00;95491.91;4992534;28;20141;-85
2023/09/21 01:15:18;;;;;;;0.10;0.10;;;;;;;13.65;100.00;95488.91;4990335;28;20046;-85
2023/09/21 01:18:04;;;;;;;0.10;0.10;;;;;;;13.57;100.00;95486.84;4973526;28;20409;-84
2023/09/21 01:20:51;;;;;;;0.10;0.10;;;;;;;13.50;100.00;95481.84;4977380;28;20489;-84
2023/09/21 01:23:43;;;;;;;0.10;0.10;;;;;;;13.51;100.00;95483.44;4968930;28;20046;-84
2023/09/21 01:26:29;;;;;;;0.10;0.10;;;;;;;13.44;100.00;95482.19;4991327;28;20042;-84
2023/09/21 01:29:14;;;;;;;0.10;0.10;;;;;;;13.40;100.00;95482.00;4975860;28;20579;-84
2023/09/21 01:32:00;;;;;;;0.10;0.10;;;;;;;13.42;100.00;95479.00;4989384;28;20187;-84
2023/09/21 01:34:46;;;;;;;0.10;0.10;;;;;;;13.39;100.00;95469.66;4976290;28;20045;-84
2023/09/21 01:37:32;;;;;;;0.00;0.00;;;;;;;13.41;100.00;95472.84;4976752;28;20037;-83
2023/09/21 01:40:19;;;;;;;0.10;0.10;;;;;;;13.37;100.00;95466.44;4974112;28;20057;-83
2023/09/21 01:43:08;;;;;;;0.10;0.10;;;;;;;13.28;100.00;95470.84;4991237;28;20132;-84
2023/09/21 01:45:54;;;;;;;0.10;0.10;;;;;;;13.27;100.00;95474.63;4993619;28;20088;-84
2023/09/21 01:48:40;;;;;;;0.00;0.00;;;;;;;13.15;100.00;95463.47;4970666;28;20143;-83
2023/09/21 01:51:26;;;;;;;0.10;0.10;;;;;;;13.08;100.00;95467.31;4991484;28;20034;-84
2023/09/21 01:54:12;;;;;;;0.10;0.10;;;;;;;13.04;100.00;95466.28;4974632;28;20383;-84
2023/09/21 01:56:59;;;;;;;0.10;0.10;;;;;;;12.96;100.00;95464.25;4974615;28;20414;-84
2023/09/21 01:59:44;;;;;;;0.10;0.10;;;;;;;12.87;100.00;95455.22;4978533;28;20052;-84
2023/09/21 02:02:31;;;;;;;0.10;0.10;;;;;;;12.82;100.00;95457.97;4975094;28;20156;-84
2023/09/21 02:05:17;;;;;;;0.10;0.10;;;;;;;12.79;100.00;95447.81;4976714;28;20069;-83
2023/09/21 02:08:04;;;;;;;0.10;0.10;;;;;;;12.87;100.00;95451.75;4976968;28;20042;-83
2023/09/21 02:10:50;;;;;;;0.10;0.10;;;;;;;13.00;100.00;95457.22;4991838;28;20053;-83
2023/09/21 02:13:36;;;;;;;0.10;0.10;;;;;;;13.06;100.00;95439.94;4992692;28;20080;-84
2023/09/21 02:16:24;;;;;;;0.10;0.10;;;;;;;13.13;100.00;95449.53;4975539;28;20228;-84
2023/09/21 02:19:11;;;;;;;0.10;0.10;;;;;;;13.18;100.00;95444.91;4992783;28;20457;-85
2023/09/21 02:21:57;;;;;;;0.10;0.10;;;;;;;13.28;100.00;95438.63;4980138;28;20802;-83
2023/09/21 02:24:43;;;;;;;0.00;0.00;;;;;;;13.42;100.00;95426.06;4992876;28;20069;-84
2023/09/21 02:27:33;;;;;;;0.10;0.10;;;;;;;13.54;100.00;95423.75;5004124;28;20042;-83
2023/09/21 02:30:21;;;;;;;0.10;0.10;;;;;;;13.57;100.00;95423.16;4990744;28;20640;-83
2023/09/21 02:33:07;;;;;;;0.10;0.10;;;;;;;13.54;100.00;95423.75;4990038;28;20200;-82
2023/09/21 02:35:53;;;;;;;0.10;0.10;;;;;;;13.44;100.00;95425.75;4976707;28;20088;-86
2023/09/21 02:38:39;;;;;;;0.00;0.00;;;;;;;13.42;100.00;95419.88;4974366;28;20639;-85
2023/09/21 02:41:26;;;;;;;0.10;0.10;;;;;;;13.46;100.00;95418.22;4975612;28;20104;-85
2023/09/21 02:44:15;;;;;;;0.10;0.10;;;;;;;13.49;100.00;95405.00;4987492;28;20355;-86
2023/09/21 02:47:00;;;;;;;0.10;0.10;;;;;;;13.49;100.00;95401.50;4987688;28;20877;-86
2023/09/21 02:49:46;;;;;;;0.10;0.10;;;;;;;13.53;100.00;95395.25;4972364;28;20046;-86
2023/09/21 02:52:33;;;;;;;0.10;0.10;;;;;;;13.53;100.00;95389.88;4962022;28;20038;-86
2023/09/21 02:55:20;;;;;;;0.10;0.10;;;;;;;13.57;100.00;95382.03;4973855;28;20037;-86
2023/09/21 02:58:12;;;;;;;0.10;0.10;;;;;;;13.61;100.00;95391.09;4972671;28;20044;-85
2023/09/21 03:01:16;;;;;;;0.10;0.10;;;;;;;13.57;100.00;95385.53;4987550;28;20042;-85
2023/09/21 03:04:03;;;;;;;0.10;0.10;;;;;;;13.50;100.00;95374.34;4984818;28;20587;-84
2023/09/21 03:06:49;;;;;;;0.10;0.10;;;;;;;13.37;100.00;95367.81;4974743;28;20042;-84
2023/09/21 03:09:37;;;;;;;0.10;0.10;;;;;;;13.30;100.00;95363.91;4988054;28;20107;-83
2023/09/21 03:12:23;;;;;;;0.10;0.10;;;;;;;13.30;100.00;95361.22;4986989;28;20031;-84
2023/09/21 03:15:16;;;;;;;0.10;0.10;;;;;;;13.30;100.00;95359.31;4974540;28;20432;-84
2023/09/21 03:18:09;;;;;;;0.03;0.03;;;;;;;13.33;100.00;95360.66;4974640;28;20564;-85
2023/09/21 03:20:55;;;;;;;0.10;0.10;;;;;;;13.29;100.00;95352.34;4988988;28;20524;-84
2023/09/21 03:23:46;;;;;;;0.10;0.10;;;;;;;13.30;100.00;95353.16;4987701;28;20124;-84
2023/09/21 03:26:31;;;;;;;0.10;0.10;;;;;;;13.33;100.00;95350.69;4992025;28;20056;-83
2023/09/21 03:29:17;;;;;;;0.10;0.10;;;;;;;13.31;100.00;95336.75;4991472;28;20034;-84
2023/09/21 03:32:03;;;;;;;0.00;0.00;;;;;;;13.26;100.00;95344.09;4991568;28;20440;-84
2023/09/21 03:34:49;;;;;;;0.10;0.10;;;;;;;13.29;100.00;95338.13;4992972;28;20559;-83
2023/09/21 03:37:35;;;;;;;0.10;0.10;;;;;;;13.24;100.00;95341.72;4990638;28;20036;-84
2023/09/21 03:40:23;;;;;;;0.10;0.10;;;;;;;13.21;100.00;95333.41;4992061;28;20045;-85
2023/09/21 03:43:12;;;;;;;0.10;0.10;;;;;;;13.18;100.00;95333.97;4993145;28;20112;-84
2023/09/21 03:45:58;;;;;;;0.10;0.10;;;;;;;13.20;100.00;95331.81;4977319;28;20046;-85
2023/09/21 03:48:44;;;;;;;0.10;0.10;;;;;;;13.15;100.00;95330.00;4980525;28;20050;-86
2023/09/21 03:51:31;;;;;;;0.10;0.10;;;;;;;13.17;100.00;95335.88;4977614;28;20073;-85
2023/09/21 03:54:17;;;;;;;0.10;0.10;;;;;;;13.17;100.00;95325.13;4977433;28;20416;-84
2023/09/21 03:57:04;;;;;;;0.10;0.10;;;;;;;13.18;100.00;95317.88;4976761;28;20473;-84
2023/09/21 03:59:50;;;;;;;0.10;0.10;;;;;;;13.19;100.00;95314.88;4977913;28;20038;-84
2023/09/21 04:02:37;;;;;;;0.10;0.10;;;;;;;13.18;100.00;95307.91;4976687;28;20408;-84
2023/09/21 04:05:24;;;;;;;0.10;0.10;;;;;;;13.18;100.00;95312.50;4992552;28;20854;-85
2023/09/21 04:08:10;;;;;;;0.10;0.10;;;;;;;13.08;100.00;95302.72;4978691;28;20050;-84
2023/09/21 04:10:59;;;;;;;0.00;0.00;;;;;;;13.02;100.00;95303.88;4991951;28;20046;-85
2023/09/21 04:13:45;;;;;;;0.10;0.10;;;;;;;13.00;100.00;95301.47;4990857;28;20576;-85
2023/09/21 04:16:31;;;;;;;0.10;0.10;;;;;;;13.03;100.00;95300.88;4994115;28;20038;-84
2023/09/21 04:19:18;;;;;;;0.08;0.08;;;;;;;12.96;100.00;95295.09;4973733;28;20038;-84
2023/09/21 04:22:05;;;;;;;0.00;0.00;;;;;;;12.90;100.00;95293.56;4978420;28;20100;-83
2023/09/21 04:24:51;;;;;;;0.10;0.10;;;;;;;12.87;100.00;95287.97;4978467;28;20135;-84
2023/09/21 04:27:39;;;;;;;0.10;0.10;;;;;;;12.82;100.00;95294.22;4972558;28;20520;-86
2023/09/21 04:30:26;;;;;;;0.10;0.10;;;;;;;12.83;100.00;95290.44;4978538;28;20116;-85
2023/09/21 04:33:12;;;;;;;0.00;0.00;;;;;;;12.86;100.00;95295.25;4976840;28;20044;-85
2023/09/21 04:35:58;;;;;;;0.10;0.10;;;;;;;12.90;100.00;95298.91;4991432;28;20041;-86
2023/09/21 04:38:47;;;;;;;0.10;0.10;;;;;;;12.93;100.00;95297.56;4988799;28;20046;-85
2023/09/21 04:41:34;;;;;;;0.00;0.00;;;;;;;12.86;100.00;95305.97;4973115;28;20471;-85
2023/09/21 04:44:20;;;;;;;0.00;0.00;;;;;;;12.75;100.00;95308.00;4992624;28;20052;-85
2023/09/21 04:47:06;;;;;;;0.10;0.10;;;;;;;12.75;100.00;95308.00;4990765;28;20847;-84
2023/09/21 04:49:54;;;;;;;0.10;0.10;;;;;;;12.74;100.00;95305.59;4981097;28;20329;-84
2023/09/21 04:52:40;;;;;;;0.10;0.10;;;;;;;12.74;100.00;95303.72;4978309;28;20073;-85
2023/09/21 04:55:27;;;;;;;0.00;0.00;;;;;;;12.67;100.00;95302.47;4976289;28;20416;-85
2023/09/21 04:58:13;;;;;;;0.10;0.10;;;;;;;12.61;100.00;95300.97;4979739;28;20034;-85
2023/09/21 05:00:59;;;;;;;0.10;0.10;;;;;;;12.57;100.00;95302.63;4992098;28;20298;-86
2023/09/21 05:03:45;;;;;;;0.05;0.05;;;;;;;12.58;100.00;95296.16;4977265;28;20084;-85
2023/09/21 05:06:32;;;;;;;0.10;0.10;;;;;;;12.57;100.00;95298.03;4979994;28;20038;-84
2023/09/21 05:09:17;;;;;;;0.10;0.10;;;;;;;12.66;100.00;95298.19;4976029;28;20073;-87
2023/09/21 05:12:05;;;;;;;0.08;0.08;;;;;;;12.73;100.00;95302.13;4972579;28;20117;-85
2023/09/21 05:14:51;;;;;;;0.08;0.08;;;;;;;12.77;100.00;95307.72;4976882;28;20053;-86
2023/09/21 05:17:37;;;;;;;0.10;0.10;;;;;;;12.70;100.00;95305.41;4986569;28;20062;-85
2023/09/21 05:20:23;;;;;;;0.10;0.10;;;;;;;12.68;100.00;95293.34;4990751;28;20038;-86
2023/09/21 05:23:09;;;;;;;0.10;0.10;;;;;;;12.70;100.00;95293.88;4977271;28;20121;-85
2023/09/21 05:25:56;;;;;;;0.10;0.10;;;;;;;12.73;100.00;95286.00;4993680;28;20050;-86
2023/09/21 05:28:44;;;;;;;0.10;0.10;;;;;;;12.94;100.00;95294.59;4993358;28;20042;-85
2023/09/21 05:31:31;;;;;;;0.10;0.10;;;;;;;13.04;100.00;95286.38;4994970;28;20108;-84
2023/09/21 05:34:17;;;;;;;0.10;0.10;;;;;;;13.13;100.00;95296.44;5014014;28;20119;-84
2023/09/21 05:37:03;;;;;;;0.10;0.10;;;;;;;13.21;100.00;95301.97;5012467;28;20364;-87
2023/09/21 05:39:49;;;;;;;0.10;0.10;;;;;;;13.20;100.00;95295.00;4995774;28;20045;-85
2023/09/21 05:42:35;;;;;;;0.10;0.10;;;;;;;13.25;100.00;95286.09;4991777;28;20046;-86
2023/09/21 05:45:21;;;;;;;0.00;0.00;;;;;;;13.31;100.00;95287.59;4977055;28;20562;-85
2023/09/21 05:48:14;;;;;;;0.00;0.00;;;;;;;13.30;100.00;95289.47;4989055;28;20038;-85
2023/09/21 05:51:01;;;;;;;0.00;0.00;;;;;;;13.28;100.00;95290.88;4991610;28;20638;-85
2023/09/21 05:53:48;;;;;;;0.10;0.10;;;;;;;13.19;100.00;95288.03;4976625;28;20065;-86
2023/09/21 05:56:36;;;;;;;0.00;0.00;;;;;;;13.23;100.00;95282.88;4994673;28;20128;-86
2023/09/21 05:59:22;;;;;;;0.10;0.10;;;;;;;13.22;100.00;95286.66;4994004;28;20041;-85
2023/09/21 06:02:13;;;;;;;0.00;0.00;;;;;;;13.09;100.00;95277.44;4989986;28;20049;-86
2023/09/21 06:04:59;;;;;;;0.10;0.10;;;;;;;13.05;100.00;95282.59;4992707;28;20649;-83
2023/09/21 06:07:45;;;;;;;0.10;0.10;;;;;;;13.11;100.00;95280.63;4994308;28;20415;-85
2023/09/21 06:10:33;;;;;;;0.10;0.10;;;;;;;13.17;100.00;95278.66;4991378;28;20366;-86
2023/09/21 06:13:19;;;;;;;0.10;0.10;;;;;;;13.19;100.00;95279.97;4990884;28;20038;-86
2023/09/21 06:16:04;;;;;;;0.10;0.10;;;;;;;13.25;100.00;95294.16;4994049;28;20072;-85
2023/09/21 06:18:50;;;;;;;0.00;0.00;;;;;;;13.35;100.00;95284.03;4989843;28;20519;-86
2023/09/21 06:21:36;;;;;;;0.10;0.10;;;;;;;13.45;100.00;95280.38;4987668;28;20454;-86
2023/09/21 06:24:24;;;;;;;0.00;0.00;;;;;;;13.45;100.00;95277.69;4990122;28;20092;-85
2023/09/21 06:27:10;;;;;;;0.10;0.10;;;;;;;13.51;100.00;95289.94;4990710;28;20030;-86
2023/09/21 06:29:56;;;;;;;0.10;0.10;;;;;;;13.60;100.00;95285.47;4976721;28;20060;-86
2023/09/21 06:32:42;;;;;;;0.10;0.10;;;;;;;13.66;100.00;95286.19;4987328;28;20033;-87
2023/09/21 06:35:28;;;;;;;0.05;0.05;;;;;;;13.78;100.00;95309.94;4991948;28;20455;-86
2023/09/21 06:38:14;;;;;;;0.10;0.10;;;;;;;13.90;100.00;95305.66;4990403;28;20034;-86
2023/09/21 06:41:00;;;;;;;0.10;0.10;;;;;;;14.04;100.00;95304.88;4988165;28;20046;-85
2023/09/21 06:43:46;;;;;;;0.10;0.10;;;;;;;14.16;100.00;95287.16;4988989;28;20057;-86
2023/09/21 06:46:32;;;;;;;0.10;0.10;;;;;;;14.26;100.00;95280.78;4989587;28;20045;-85
2023/09/21 06:49:21;;;;;;;0.10;0.10;;;;;;;14.37;100.00;95279.44;4986791;28;20076;-85
2023/09/21 06:52:07;;;;;;;0.00;0.00;;;;;;;14.49;100.00;95279.78;4985024;28;20037;-85
2023/09/21 06:54:54;;;;;;;0.10;0.10;;;;;;;14.65;100.00;95285.63;4988912;28;20042;-86
2023/09/21 06:57:40;;;;;;;0.10;0.10;;;;;;;14.77;100.00;95288.59;4985853;28;20042;-85
2023/09/21 07:00:26;;;;;;;0.03;0.03;;;;;;;14.88;100.00;95288.38;4986959;28;20500;-86
2023/09/21 07:03:12;;;;;;;0.10;0.10;;;;;;;15.00;100.00;95294.00;4988511;28;20497;-86
2023/09/21 07:05:58;;;;;;;0.10;0.10;;;;;;;15.08;100.00;95292.50;4990488;28;20128;-86
2023/09/21 07:08:44;;;;;;;0.10;0.10;;;;;;;15.14;100.00;95281.28;4986883;28;20046;-85
2023/09/21 07:11:33;;;;;;;0.10;0.10;;;;;;;15.19;100.00;95273.09;4988597;28;20114;-86
2023/09/21 07:14:19;;;;;;;0.10;0.10;;;;;;;15.27;100.00;95276.97;4990173;28;20054;-85
2023/09/21 07:17:05;;;;;;;0.10;0.10;;;;;;;15.29;100.00;95253.97;4988189;28;20490;-86
2023/09/21 07:19:51;;;;;;;0.10;0.10;;;;;;;15.38;100.00;95259.44;4993797;28;20085;-86
2023/09/21 07:22:37;;;;;;;0.10;0.10;;;;;;;15.45;100.00;95261.69;4989796;28;20038;-85
2023/09/21 07:25:24;;;;;;;0.10;0.10;;;;;;;15.49;100.00;95257.28;4987831;28;20186;-87
2023/09/21 07:28:10;;;;;;;0.10;0.10;;;;;;;15.63;100.00;95259.91;4987974;28;20492;-86
2023/09/21 07:30:56;;;;;;;0.10;0.10;;;;;;;15.64;100.00;95267.72;4990679;28;20096;-86
2023/09/21 07:33:41;;;;;;;0.10;0.10;;;;;;;15.76;100.00;95269.84;4981022;28;20045;-87
2023/09/21 07:36:28;;;;;;;0.05;0.05;;;;;;;15.87;100.00;95269.25;4990209;28;20033;-85
2023/09/21 07:39:16;;;;;;;0.00;0.00;;;;;;;15.92;100.00;95265.63;4989620;28;20049;-84
2023/09/21 07:42:04;;;;;;;0.00;0.00;;;;;;;16.05;100.00;95261.25;4974164;28;20050;-84
2023/09/21 07:44:49;;;;;;;0.10;0.10;;;;;;;16.21;100.00;95253.53;4993375;28;20045;-85
2023/09/21 07:47:38;;;;;;;0.10;0.10;;;;;;;16.22;100.00;95257.81;4971244;28;20038;-84
2023/09/21 07:50:24;;;;;;;0.10;0.10;;;;;;;16.23;100.00;95251.28;4972276;28;20386;-84
2023/09/21 07:53:09;;;;;;;0.10;0.10;;;;;;;16.32;100.00;95266.41;4969419;28;20073;-84
2023/09/21 07:56:01;;;;;;;0.10;0.10;;;;;;;16.50;100.00;95258.34;4970321;28;20046;-84
2023/09/21 07:58:47;;;;;;;0.10;0.10;;;;;;;16.55;100.00;95258.19;4971710;28;20030;-85
2023/09/21 08:01:34;;;;;;;0.10;0.10;;;;;;;16.63;100.00;95265.50;4971645;28;20489;-84
2023/09/21 08:04:21;;;;;;;0.10;0.10;;;;;;;16.69;100.00;95259.69;4970727;28;20240;-86
2023/09/21 08:07:07;;;;;;;0.10;0.10;;;;;;;16.68;100.00;95260.75;4969096;28;20046;-85
2023/09/21 08:09:56;;;;;;;0.10;0.10;;;;;;;16.76;100.00;95255.72;4970582;28;20153;-86
2023/09/21 08:12:42;;;;;;;0.10;0.10;;;;;;;16.81;100.00;95250.97;4970910;28;20041;-85
2023/09/21 08:15:28;;;;;;;0.10;0.10;;;;;;;16.86;100.00;95253.50;4977702;28;20065;-84
2023/09/21 08:18:14;;;;;;;0.10;0.10;;;;;;;17.20;100.00;95262.75;4973244;28;21059;-84
2023/09/21 08:21:00;;;;;;;0.10;0.10;;;;;;;17.48;100.00;95263.97;4973850;28;20389;-85
2023/09/21 08:23:46;;;;;;;0.10;0.10;;;;;;;17.85;100.00;95269.78;4976020;28;20548;-84
2023/09/21 08:26:33;;;;;;;0.10;0.10;;;;;;;17.81;100.00;95260.72;4973650;28;20050;-84
2023/09/21 08:29:21;;;;;;;0.10;0.10;;;;;;;17.58;100.00;95257.41;4973700;28;20073;-85
2023/09/21 08:32:07;;;;;;;0.00;0.00;;;;;;;17.37;100.00;95262.72;4973710;28;20049;-85
2023/09/21 08:34:53;;;;;;;0.10;0.10;;;;;;;17.05;100.00;95260.50;4973484;28;20030;-85
2023/09/21 08:37:39;;;;;;;0.10;0.10;;;;;;;17.04;100.00;95248.88;4976458;28;20465;-86
2023/09/21 08:40:25;;;;;;;0.10;0.10;;;;;;;17.22;100.00;95263.22;4973614;28;20046;-86
2023/09/21 08:43:22;;;;;;;0.10;0.10;;;;;;;17.21;100.00;95262.41;4971320;28;20335;-85
2023/09/21 08:46:11;;;;;;;0.10;0.10;;;;;;;17.27;100.00;95258.44;4988658;28;20368;-86
2023/09/21 08:49:00;;;;;;;0.10;0.10;;;;;;;17.16;100.00;95253.66;4998968;28;20042;-85
2023/09/21 08:51:47;;;;;;;0.10;0.10;;;;;;;17.16;100.00;95240.94;4995590;28;20052;-85
2023/09/21 08:54:33;;;;;;;0.10;0.10;;;;;;;17.15;100.00;95258.28;4994852;28;20045;-85
2023/09/21 08:57:19;;;;;;;0.10;0.10;;;;;;;17.24;100.00;95255.56;4995190;28;20041;-85
2023/09/21 09:00:06;;;;;;;0.10;0.10;;;;;;;17.07;100.00;95261.78;4989956;28;20080;-85
2023/09/21 09:02:52;;;;;;;0.00;0.00;;;;;;;17.02;100.00;95250.31;4990779;28;20049;-86
2023/09/21 09:05:38;;;;;;;0.00;0.00;;;;;;;16.94;100.00;95243.81;4992549;28;20049;-86
2023/09/21 09:08:25;;;;;;;0.10;0.10;;;;;;;16.96;100.00;95253.19;4992997;28;20151;-86
2023/09/21 09:11:42;;;;;;;0.10;0.10;;;;;;;17.12;100.00;95247.28;4977610;28;20073;-85
2023/09/21 09:14:28;;;;;;;0.10;0.10;;;;;;;17.07;100.00;95244.78;4990029;28;20041;-85
2023/09/21 09:17:14;;;;;;;0.10;0.10;;;;;;;16.99;100.00;95236.34;4989363;28;20038;-86
2023/09/21 09:20:02;;;;;;;0.10;0.10;;;;;;;17.01;100.00;95241.41;4992101;28;20045;-87
2023/09/21 09:22:50;;;;;;;0.10;0.10;;;;;;;16.90;100.00;95238.25;4979108;28;20038;-87
2023/09/21 09:25:37;;;;;;;0.10;0.10;;;;;;;16.79;100.00;95236.16;4991406;28;20037;-85
2023/09/21 09:28:23;;;;;;;0.00;0.00;;;;;;;16.79;100.00;95231.56;4988865;28;20108;-86
2023/09/21 09:31:11;;;;;;;0.10;0.10;;;;;;;17.00;100.00;95234.44;4993262;28;20044;-87
2023/09/21 09:33:59;;;;;;;0.10;0.10;;;;;;;17.08;100.00;95238.25;4991880;28;20038;-86
2023/09/21 09:36:50;;;;;;;0.10;0.10;;;;;;;17.11;100.00;95232.19;4992154;28;20052;-86
2023/09/21 09:39:36;;;;;;;;;;;;;;;17.08;100.00;95235.53;4991082;28;20657;-86
2023/09/21 09:42:24;;;;;;;0.10;0.10;;;;;;;17.03;100.00;95231.09;4989701;28;20364;-86
2023/09/21 09:45:16;;;;;;;0.10;0.10;;;;;;;17.07;100.00;95231.25;4993684;28;20064;-86
2023/09/21 09:48:10;;;;;;;0.10;0.10;;;;;;;17.12;100.00;95218.38;4990329;28;20038;-86
2023/09/21 09:51:03;;;;;;;0.10;0.10;;;;;;;17.40;100.00;95218.00;4990008;28;20113;-86
2023/09/21 09:53:52;;;;;;;0.00;0.00;;;;;;;17.58;100.00;95202.53;4977033;28;20045;-86
2023/09/21 09:56:41;;;;;;;0.10;0.10;;;;;;;17.74;100.00;95203.63;4992014;28;20048;-87
2023/09/21 09:59:28;;;;;;;0.10;0.10;;;;;;;17.72;100.00;95203.94;4991426;28;20091;-86
2023/09/21 10:02:18;;;;;;;0.00;0.00;;;;;;;17.71;100.00;95198.84;4988527;28;20042;-84
2023/09/21 10:05:04;;;;;;;0.10;0.10;;;;;;;17.97;100.00;95196.03;4990816;28;20422;-84
2023/09/21 10:07:54;;;;;;;0.10;0.10;;;;;;;18.12;100.00;95187.38;4991289;28;20035;-84
2023/09/21 10:10:44;;;;;;;0.10;0.10;;;;;;;18.18;100.00;95177.16;4993224;28;20369;-83
2023/09/21 10:13:30;;;;;;;0.00;0.00;;;;;;;18.09;100.00;95186.13;4976045;28;20286;-84
2023/09/21 10:16:17;;;;;;;0.10;0.10;;;;;;;18.21;100.00;95181.91;4991930;28;20042;-84
2023/09/21 10:19:06;;;;;;;0.00;0.00;;;;;;;18.15;100.00;95178.63;4991596;28;20029;-83
2023/09/21 10:22:03;;;;;;;0.00;0.00;;;;;;;18.50;100.00;95183.78;4989738;28;20047;-85
2023/09/21 10:24:58;;;;;;;0.10;0.10;;;;;;;18.57;100.00;95176.72;4988928;28;20465;-84
2023/09/21 10:27:46;;;;;;;0.10;0.10;;;;;;;18.71;100.00;95176.50;4990603;28;20416;-84
2023/09/21 10:30:32;;;;;;;0.10;0.10;;;;;;;18.99;100.00;95179.47;4986933;28;20505;-85
2023/09/21 10:33:18;;;;;;;0.10;0.10;;;;;;;19.05;100.00;95180.03;4988339;28;20351;-84
2023/09/21 10:36:04;;;;;;;0.00;0.00;;;;;;;18.93;100.00;95180.78;4989964;28;20045;-84
2023/09/21 10:39:11;;;;;;;0.05;0.05;;;;;;;18.97;100.00;95178.19;4983285;28;20136;-84
2023/09/21 10:42:03;;;;;;;0.10;0.10;;;;;;;18.76;100.00;95173.59;4989237;28;20041;-84
2023/09/21 10:45:00;;;;;;;0.10;0.10;;;;;;;18.83;100.00;95170.34;4988974;28;20138;-84
2023/09/21 10:47:51;;;;;;;0.03;0.03;;;;;;;18.50;100.00;95165.63;4990335;28;20046;-84
2023/09/21 10:50:37;;;;;;;0.10;0.10;;;;;;;18.28;100.00;95158.59;4990703;28;20143;-84
2023/09/21 10:53:23;;;;;;;0.10;0.10;;;;;;;18.36;100.00;95165.09;4986543;28;20034;-84
2023/09/21 10:56:12;;;;;;;0.10;0.10;;;;;;;18.42;100.00;95158.38;4990207;28;20527;-83
2023/09/21 10:58:57;;;;;;;0.10;0.10;;;;;;;18.78;100.00;95148.88;4988976;28;20041;-84
2023/09/21 11:01:43;;;;;;;0.20;0.20;;;;;;;19.36;100.00;95144.31;4989200;28;20034;-84
2023/09/21 11:04:29;;;;;;;0.10;0.10;;;;;;;19.80;100.00;95147.38;4986940;28;20604;-84
2023/09/21 11:07:18;;;;;;;0.10;0.10;;;;;;;19.71;100.00;95140.13;4986929;28;20173;-84
2023/09/21 11:10:06;;;;;;;0.10;0.10;;;;;;;19.27;100.00;95130.06;4986935;28;20050;-85
2023/09/21 11:12:52;;;;;;;0.10;0.10;;;;;;;19.08;100.00;95120.53;4988030;28;20563;-84
2023/09/21 11:15:38;;;;;;;0.10;0.10;;;;;;;19.18;100.00;95125.53;4992091;28;20104;-84
2023/09/21 11:18:24;;;;;;;0.10;0.10;;;;;;;18.99;100.00;95127.97;4986700;28;20430;-84
2023/09/21 11:21:13;;;;;;;0.03;0.03;;;;;;;19.31;100.00;95115.53;4988811;28;20186;-84
2023/09/21 11:24:00;;;;;;;0.10;0.10;;;;;;;19.75;100.00;95118.53;4986651;28;20076;-84
2023/09/21 11:26:49;;;;;;;0.10;0.10;;;;;;;19.69;100.00;95106.31;4990873;28;20042;-83
2023/09/21 11:29:43;;;;;;;0.10;0.10;;;;;;;19.48;100.00;95099.03;4988406;28;20445;-84
2023/09/21 11:32:40;;;;;;;0.10;0.10;;;;;;;19.34;100.00;95095.06;4988233;28;20073;-84
2023/09/21 11:35:26;;;;;;;0.10;0.10;;;;;;;19.13;100.00;95085.06;4990289;28;20084;-84
2023/09/21 11:38:13;;;;;;;0.10;0.10;;;;;;;19.24;100.00;95098.22;4985755;28;20038;-85
2023/09/21 11:41:01;;;;;;;0.10;0.10;;;;;;;19.04;100.00;95092.50;4988653;28;20072;-85
2023/09/21 11:43:49;;;;;;;0.10;0.10;;;;;;;18.86;100.00;95091.09;4988164;28;20038;-85
2023/09/21 11:46:35;;;;;;;0.10;0.10;;;;;;;18.92;100.00;95092.50;4988337;28;20042;-85
2023/09/21 11:49:23;;;;;;;0.00;0.00;;;;;;;18.71;100.00;95094.44;4991193;28;20624;-83
2023/09/21 11:52:11;;;;;;;0.10;0.10;;;;;;;19.17;100.00;95087.91;4994743;28;20053;-86
2023/09/21 11:54:56;;;;;;;0.10;0.10;;;;;;;19.74;100.00;95073.53;4993359;28;20046;-85
2023/09/21 11:57:42;;;;;;;0.10;0.10;;;;;;;20.33;100.00;95066.78;4995233;28;20042;-84
2023/09/21 12:00:43;;;;;;;0.10;0.10;;;;;;;20.35;100.00;95068.00;4993474;28;20048;-86
2023/09/21 12:03:33;;;;;;;0.10;0.10;;;;;;;20.21;100.00;95059.44;4992904;28;20095;-85
2023/09/21 12:06:19;;;;;;;0.10;0.10;;;;;;;20.55;100.00;95052.69;4994401;28;20048;-85
2023/09/21 12:09:07;;;;;;;0.10;0.10;;;;;;;21.30;100.00;95043.81;4992410;28;20056;-84
2023/09/21 12:11:54;;;;;;;0.10;0.10;;;;;;;21.93;100.00;95039.09;4992402;28;20505;-83
2023/09/21 12:14:42;;;;;;;0.10;0.10;;;;;;;22.20;100.00;95042.06;4993045;28;20064;-85
2023/09/21 12:17:30;;;;;;;0.10;0.10;;;;;;;21.61;100.00;95054.69;4990213;28;20489;-86
2023/09/21 12:20:19;;;;;;;0.13;0.13;;;;;;;21.57;100.00;95045.66;4993826;28;20048;-86
2023/09/21 12:23:06;;;;;;;0.10;0.10;;;;;;;21.40;100.00;95044.09;4991968;28;20057;-85
2023/09/21 12:25:53;;;;;;;0.10;0.10;;;;;;;21.10;100.00;95023.88;4992445;28;20568;-85
2023/09/21 12:28:39;;;;;;;0.00;0.00;;;;;;;20.47;100.00;95021.81;4973109;28;20397;-85
2023/09/21 12:31:25;;;;;;;0.10;0.10;;;;;;;20.27;100.00;95014.59;4978971;28;20434;-84
2023/09/21 12:34:13;;;;;;;0.10;0.10;;;;;;;20.59;100.00;95010.09;4989484;28;20407;-82
2023/09/21 12:37:00;;;;;;;0.10;0.10;;;;;;;20.39;100.00;95019.19;4989712;28;20046;-84
2023/09/21 12:39:46;;;;;;;0.05;0.05;;;;;;;20.39;100.00;95005.63;4990179;28;20045;-83
2023/09/21 12:42:32;;;;;;;0.10;0.10;;;;;;;20.12;100.00;95013.41;4990259;28;20820;-83
2023/09/21 12:45:18;;;;;;;0.10;0.10;;;;;;;19.97;100.00;95001.34;4990414;28;20587;-85
2023/09/21 12:48:07;;;;;;;0.10;0.10;;;;;;;20.16;100.00;94995.31;4989538;28;20561;-83
2023/09/21 12:50:53;;;;;;;0.08;0.08;;;;;;;20.29;100.00;94985.16;4976825;28;20072;-85
2023/09/21 12:53:39;;;;;;;0.10;0.10;;;;;;;20.18;100.00;94984.88;4993983;28;20042;-84
2023/09/21 12:56:26;;;;;;;0.00;0.00;;;;;;;19.89;100.00;94982.47;4989674;28;20042;-83
2023/09/21 12:59:14;;;;;;;0.05;0.05;;;;;;;19.82;100.00;94987.69;4989711;28;20128;-83